createdAt,value
2022-10-13T00:02:49.024Z,968.17
2022-10-13T00:07:51.223Z,968.12
2022-10-13T00:12:53.289Z,968.08
2022-10-13T00:17:54.750Z,968
2022-10-13T00:22:56.530Z,968.05
2022-10-13T00:27:58.666Z,968.09
2022-10-13T00:32:59.873Z,968.17
2022-10-13T00:38:01.666Z,968.17
2022-10-13T00:43:03.455Z,968.12
2022-10-13T00:48:05.449Z,968.12
2022-10-13T00:53:07.591Z,968.12
2022-10-13T00:58:09.230Z,968.13
2022-10-13T01:03:10.672Z,968.11
2022-10-13T01:08:12.472Z,968.15
2022-10-13T01:13:13.965Z,968.17
2022-10-13T01:18:15.444Z,968.14
2022-10-13T01:23:16.604Z,968.11
2022-10-13T01:28:17.889Z,968.08
2022-10-13T01:33:19.139Z,968.18
2022-10-13T01:38:20.906Z,968.13
2022-10-13T01:43:22.677Z,968.1
2022-10-13T01:48:24.639Z,968.1
2022-10-13T01:53:26.718Z,968.1
2022-10-13T01:58:28.679Z,968.13
2022-10-13T02:03:30.537Z,968.1
2022-10-13T02:08:32.556Z,968.15
2022-10-13T02:13:34.731Z,968.13
2022-10-13T02:18:36.163Z,968.16
2022-10-13T02:23:38.263Z,968.13
2022-10-13T02:28:39.572Z,968.09
2022-10-13T02:33:40.800Z,968.12
2022-10-13T02:38:42.779Z,968.08
2022-10-13T02:43:44.467Z,968.05
2022-10-13T02:48:45.615Z,968.02
2022-10-13T02:53:47.561Z,968.05
2022-10-13T02:58:49.190Z,968
2022-10-13T03:03:51.127Z,967.99
2022-10-13T03:08:53.033Z,967.9
2022-10-13T03:13:54.840Z,967.89
2022-10-13T03:18:56.192Z,967.86
2022-10-13T03:23:57.675Z,967.83
2022-10-13T03:28:59.955Z,967.83
2022-10-13T03:34:01.973Z,967.84
2022-10-13T03:39:04.033Z,967.89
2022-10-13T03:44:05.759Z,967.9
2022-10-13T03:49:07.905Z,967.97
2022-10-13T03:54:09.732Z,968.08
2022-10-13T03:59:11.136Z,968.06
2022-10-13T04:04:13.247Z,968.02
2022-10-13T04:09:15.069Z,967.99
2022-10-13T04:14:16.400Z,968.01
2022-10-13T04:19:18.204Z,967.99
2022-10-13T04:24:20.354Z,968.02
2022-10-13T04:29:22.165Z,968.03
2022-10-13T04:34:23.564Z,968.06
2022-10-13T04:39:25.428Z,968.05
2022-10-13T04:44:27.252Z,968.08
2022-10-13T04:49:28.374Z,968.07
2022-10-13T04:54:30.019Z,968.01
2022-10-13T04:59:32.129Z,967.93
2022-10-13T05:04:34.118Z,967.95
2022-10-13T05:09:36.109Z,967.91
2022-10-13T05:14:37.575Z,967.89
2022-10-13T05:19:38.855Z,967.94
2022-10-13T05:24:40.139Z,967.93
2022-10-13T05:29:42.004Z,967.87
2022-10-13T05:34:43.779Z,967.93
2022-10-13T05:39:48.742Z,967.91
2022-10-13T05:44:48.009Z,967.89
2022-10-13T05:49:49.291Z,967.89
2022-10-13T05:54:50.707Z,967.91
2022-10-13T05:59:52.073Z,967.87
2022-10-13T06:04:54.106Z,967.94
2022-10-13T06:09:55.470Z,967.94
2022-10-13T06:14:56.966Z,967.89
2022-10-13T06:19:58.786Z,967.91
2022-10-13T06:25:00.138Z,967.89
2022-10-13T06:30:02.340Z,967.93
2022-10-13T06:35:04.233Z,967.94
2022-10-13T06:40:06.250Z,967.91
2022-10-13T06:45:07.549Z,967.86
2022-10-13T06:50:09.579Z,967.9
2022-10-13T06:55:10.842Z,967.94
2022-10-13T07:00:12.195Z,967.94
2022-10-13T07:05:13.394Z,967.95
2022-10-13T07:10:15.287Z,967.95
2022-10-13T07:15:16.684Z,967.96
2022-10-13T07:20:18.265Z,967.87
2022-10-13T07:25:19.550Z,967.83
2022-10-13T07:30:21.279Z,967.82
2022-10-13T07:35:24.824Z,967.82
2022-10-13T07:40:24.023Z,967.83
2022-10-13T07:45:25.111Z,967.8
2022-10-13T07:50:26.908Z,967.71
2022-10-13T07:55:28.805Z,967.61
2022-10-13T08:00:30.391Z,967.66
2022-10-13T08:05:31.361Z,967.62
2022-10-13T08:10:32.866Z,967.59
2022-10-13T08:15:34.938Z,967.56
2022-10-13T08:20:41.488Z,967.56
2022-10-13T08:25:37.886Z,967.63
2022-10-13T08:30:39.708Z,967.71
2022-10-13T08:35:41.243Z,967.67
2022-10-13T08:40:42.887Z,967.65
2022-10-13T08:45:44.247Z,967.63
2022-10-13T08:50:45.421Z,967.57
2022-10-13T08:55:47.070Z,967.45
2022-10-13T09:00:48.278Z,967.38
2022-10-13T09:05:49.825Z,967.41
2022-10-13T09:10:51.819Z,967.44
2022-10-13T09:15:53.749Z,967.43
2022-10-13T09:20:55.110Z,967.33
2022-10-13T09:25:57.218Z,967.35
2022-10-13T09:30:58.501Z,967.29
2022-10-13T09:35:59.862Z,967.23
2022-10-13T09:41:01.626Z,967.25
2022-10-13T09:51:05.510Z,967.23
2022-10-13T09:56:07.594Z,967.18
2022-10-13T10:01:09.260Z,967.14
2022-10-13T10:11:12.494Z,967.08
2022-10-13T10:16:13.854Z,967.06
2022-10-13T10:21:15.005Z,967.09
2022-10-13T10:26:20.699Z,967.08
2022-10-13T10:31:18.492Z,967.06
2022-10-13T10:36:19.831Z,967.08
2022-10-13T10:41:21.885Z,967.03
2022-10-13T10:46:23.171Z,966.98
2022-10-13T10:51:24.588Z,966.91
2022-10-13T10:56:26.311Z,966.77
2022-10-13T11:01:27.875Z,966.74
2022-10-13T11:06:29.179Z,966.72
2022-10-13T11:11:35.007Z,966.64
2022-10-13T11:16:33.149Z,966.53
2022-10-13T11:21:35.683Z,966.5
2022-10-13T11:26:35.865Z,966.47
2022-10-13T11:31:37.794Z,966.44
2022-10-13T11:36:39.895Z,966.41
2022-10-13T11:41:41.807Z,966.34
2022-10-13T11:46:43.325Z,966.35
2022-10-13T11:51:44.900Z,966.31
2022-10-13T11:56:48.587Z,966.18
2022-10-13T12:01:48.324Z,966.07
2022-10-13T12:11:52.289Z,965.96
2022-10-13T12:47:04.258Z,965.75
2022-10-13T12:52:05.439Z,965.7
2022-10-13T13:02:08.359Z,965.59
2022-10-13T13:07:10.409Z,965.58
2022-10-13T13:12:11.776Z,965.52
2022-10-13T13:17:13.264Z,965.52
2022-10-13T13:27:16.787Z,965.44
2022-10-13T13:32:20.052Z,965.37
2022-10-13T13:47:23.704Z,965.23
2022-10-13T13:52:25.465Z,965.21
2022-10-13T14:02:29.102Z,965.17
2022-10-13T14:07:30.962Z,965.18
2022-10-13T14:12:32.363Z,965.19
2022-10-13T14:17:34.475Z,965.14
2022-10-13T14:22:35.756Z,965.09
2022-10-13T14:32:45.187Z,965.1
2022-10-13T14:37:46.453Z,965.05
2022-10-13T14:42:47.904Z,965.03
2022-10-13T14:47:49.026Z,965.08
2022-10-13T14:52:50.384Z,965
2022-10-13T15:07:56.177Z,965
2022-10-13T15:12:57.790Z,964.95
2022-10-13T15:23:00.968Z,964.93
2022-10-13T15:28:02.725Z,964.87
2022-10-13T15:33:04.553Z,964.91
2022-10-13T15:38:06.241Z,964.9
2022-10-13T15:43:07.922Z,964.9
2022-10-13T15:48:09.760Z,964.92
2022-10-13T15:53:11.196Z,964.94
2022-10-13T15:58:13.912Z,964.95
2022-10-13T16:03:14.865Z,964.89
2022-10-13T16:08:16.155Z,964.83
2022-10-13T16:13:17.566Z,964.81
2022-10-13T16:18:19.002Z,964.74
2022-10-13T16:23:20.205Z,964.8
2022-10-13T16:28:22.363Z,964.78
2022-10-13T16:33:24.005Z,964.85
2022-10-13T16:38:25.751Z,964.92
2022-10-13T16:43:27.859Z,964.97
2022-10-13T16:48:30.138Z,965.02
2022-10-13T16:53:31.774Z,965
2022-10-13T16:58:34.007Z,964.97
2022-10-13T17:03:35.762Z,964.96
2022-10-13T17:08:37.680Z,964.99
2022-10-13T17:13:39.678Z,964.98
2022-10-13T17:18:41.163Z,965
2022-10-13T17:23:47.493Z,965.07
2022-10-13T17:28:44.878Z,965.05
2022-10-13T17:33:46.031Z,965.04
2022-10-13T17:38:47.418Z,965.09
2022-10-13T17:43:49.576Z,965.03
2022-10-13T17:48:51.495Z,965.02
2022-10-13T17:53:53.544Z,965.07
2022-10-13T17:58:55.026Z,965.01
2022-10-13T18:03:56.952Z,964.97
2022-10-13T18:08:58.759Z,964.93
2022-10-13T18:14:00.026Z,965
2022-10-13T18:19:02.212Z,964.92
2022-10-13T18:24:03.973Z,964.9
2022-10-13T18:29:05.903Z,964.91
2022-10-13T18:34:07.256Z,964.9
2022-10-13T18:39:09.351Z,964.87
2022-10-13T18:44:10.734Z,964.84
2022-10-13T18:49:12.701Z,964.82
2022-10-13T18:54:14.122Z,964.83
2022-10-13T18:59:15.655Z,964.74
2022-10-13T19:04:17.710Z,964.71
2022-10-13T19:09:18.947Z,964.66
2022-10-13T19:14:20.752Z,964.6
2022-10-13T19:19:22.902Z,964.52
2022-10-13T19:24:23.942Z,964.54
2022-10-13T19:29:25.127Z,964.6
2022-10-13T19:34:26.695Z,964.63
2022-10-13T19:39:28.705Z,964.55
2022-10-13T19:44:29.970Z,964.52
2022-10-13T19:49:31.602Z,964.43
2022-10-13T19:54:34.122Z,964.39
2022-10-13T19:59:35.355Z,964.53
2022-10-13T20:04:37.261Z,964.45
2022-10-13T20:09:38.446Z,964.53
2022-10-13T20:14:40.478Z,964.48
2022-10-13T20:19:42.039Z,964.51
2022-10-13T20:24:43.150Z,964.53
2022-10-13T20:29:44.347Z,964.62
2022-10-13T20:34:45.697Z,964.56
2022-10-13T20:39:46.987Z,964.5
2022-10-13T20:44:48.980Z,964.58
2022-10-13T20:49:50.760Z,964.62
2022-10-13T20:54:52.623Z,964.63
2022-10-13T20:59:53.977Z,964.56
2022-10-13T21:04:56.071Z,964.56
2022-10-13T21:09:57.799Z,964.55
2022-10-13T21:14:59.001Z,964.62
2022-10-13T21:20:00.628Z,964.63
2022-10-13T21:25:02.427Z,964.59
2022-10-13T21:30:03.742Z,964.61
2022-10-13T21:35:05.273Z,964.57
2022-10-13T21:40:06.955Z,964.55
2022-10-13T21:45:08.675Z,964.61
2022-10-13T21:50:09.946Z,964.65
2022-10-13T21:55:11.299Z,964.69
2022-10-13T22:15:17.447Z,964.9
2022-10-13T22:20:19.331Z,964.84
2022-10-13T22:25:20.789Z,964.98
2022-10-13T22:30:22.013Z,965.04
2022-10-13T22:35:23.300Z,965.1
2022-10-13T22:40:25.251Z,965.08
2022-10-13T22:45:26.786Z,965.09
2022-10-13T22:50:28.156Z,965.06
2022-10-13T22:55:30.142Z,965.03
2022-10-13T23:00:31.749Z,964.97
2022-10-13T23:05:32.916Z,964.97
2022-10-13T23:10:35.004Z,964.98
2022-10-13T23:15:36.330Z,964.92
2022-10-13T23:20:38.426Z,964.82
2022-10-13T23:25:39.829Z,964.8
2022-10-13T23:30:41.451Z,964.82
2022-10-13T23:35:42.802Z,964.81
2022-10-13T23:40:44.911Z,964.75
2022-10-13T23:45:46.156Z,964.71
2022-10-13T23:50:48.158Z,964.74
2022-10-13T23:55:49.648Z,964.73
